Time;durP1;ratioP1;P1;durP2;ratioP2;P2;SDS_P1;SDS_P2;PMS_P1;PMS_P2;Temp;Humidity;BMP_temperature;BMP_pressure;BME280_temperature;BME280_humidity;BME280_pressure;Samples;Min_cycle;Max_cycle;Signal;HPM_P1;HPM_P2
2023/05/29 00:00:06;;;;;;;;;;;20.20;97.10;20.20;99210.00;;;;337742;28;82425;-90
2023/05/29 00:00:20;;;;;;;;;;;20.20;97.20;20.20;99211.00;;;;335733;28;96808;-90
2023/05/29 00:00:32;;;;;;;;;;;20.20;97.10;20.20;99208.00;;;;335288;29;83380;-90
2023/05/29 00:00:44;;;;;;;;;;;20.20;97.00;20.20;99203.00;;;;334588;29;96888;-91
2023/05/29 00:00:56;;;;;;;;;;;20.20;96.90;20.20;99213.00;;;;335145;29;83453;-90
2023/05/29 00:01:08;;;;;;;;;;;20.20;97.00;20.30;99220.00;;;;334437;29;97399;-91
2023/05/29 00:01:21;;;;;;;;;;;20.20;97.00;20.40;99214.00;;;;336571;28;82484;-90
2023/05/29 00:01:33;;;;;;;;;;;20.20;96.80;20.30;99204.00;;;;334457;29;96260;-91
2023/05/29 00:01:44;;;;;;;;;;;20.20;96.80;20.30;99218.00;;;;336601;28;82291;-90
2023/05/29 00:01:56;;;;;;;;;;;20.20;96.80;20.30;99201.00;;;;337056;28;96977;-91
2023/05/29 00:02:08;;;;;;;;;;;20.20;96.90;20.30;99213.00;;;;339100;28;82499;-90
2023/05/29 00:02:20;;;;;;;;;;;20.20;96.90;20.40;99216.00;;;;337136;28;95435;-91
2023/05/29 00:02:32;;;;;;;;;;;20.20;96.70;20.40;99219.00;;;;336484;28;82471;-90
2023/05/29 00:02:44;;;;;;;;;;;20.20;96.70;20.30;99214.00;;;;337155;28;95498;-91
2023/05/29 00:02:56;;;;;;;;;;;20.20;96.80;20.30;99220.00;;;;336496;28;83427;-90
2023/05/29 00:03:09;;;;;;;;;;;20.20;96.70;20.30;99216.00;;;;334398;29;96639;-90
2023/05/29 00:03:21;;;;;;;;;;;20.20;96.70;20.30;99213.00;;;;341957;28;83445;-91
2023/05/29 00:03:33;;;;;;;;;;;20.20;96.60;20.30;99219.00;;;;333186;29;97158;-90
2023/05/29 00:03:46;;;;;;;;;;;20.20;96.60;20.40;99211.00;;;;339142;28;82475;-91
2023/05/29 00:03:58;;;;;;;;;;;20.10;96.50;20.40;99213.00;;;;337026;28;96699;-90
2023/05/29 00:04:12;;;;;;;;;;;20.20;96.60;20.50;99211.00;;;;336500;28;83413;-90
2023/05/29 00:04:24;;;;;;;;;;;20.20;96.50;20.50;99210.00;;;;335736;28;95640;-90
2023/05/29 00:04:37;;;;;;;;;;;20.20;96.50;20.60;99214.00;;;;337958;28;82508;-90
2023/05/29 00:04:50;;;;;;;;;;;20.20;96.60;20.60;99209.00;;;;334665;29;96673;-91
2023/05/29 00:05:03;;;;;;;;;;;20.20;96.60;20.50;99213.00;;;;338259;28;83467;-91
2023/05/29 00:05:15;;;;;;;;;;;20.20;96.70;20.60;99209.00;;;;334748;29;96441;-90
2023/05/29 00:05:27;;;;;;;;;;;20.20;96.60;20.60;99211.00;;;;335180;28;83462;-91
2023/05/29 00:05:39;;;;;;;;;;;20.20;96.60;20.50;99209.00;;;;335853;28;96898;-90
2023/05/29 00:05:52;;;;;;;;;;;20.30;96.70;20.50;99212.00;;;;336811;28;82506;-91
2023/05/29 00:06:05;;;;;;;;;;;20.30;96.80;20.50;99213.00;;;;334717;28;96515;-90
2023/05/29 00:06:18;;;;;;;;;;;20.30;96.60;20.60;99207.00;;;;343575;28;83207;-90
2023/05/29 00:06:30;;;;;;;;;;;20.30;96.50;20.60;99208.00;;;;342687;28;95001;-90
2023/05/29 00:06:42;;;;;;;;;;;20.30;96.40;20.60;99210.00;;;;342258;28;82477;-91
2023/05/29 00:06:55;;;;;;;;;;;20.30;96.50;20.60;99204.00;;;;344330;28;95652;-90
2023/05/29 00:07:07;;;;;;;;;;;20.30;96.40;20.60;99205.00;;;;344857;28;83335;-90
2023/05/29 00:07:19;;;;;;;;;;;20.30;96.40;20.60;99206.00;;;;341319;28;97621;-90
2023/05/29 00:07:32;;;;;;;;;;;20.30;96.40;20.50;99203.00;;;;342293;28;82555;-91
2023/05/29 00:07:44;;;;;;;;;;;20.30;96.70;20.40;99202.00;;;;342813;28;96594;-90
2023/05/29 00:07:56;;;;;;;;;;;20.30;96.80;20.40;99214.00;;;;342108;28;83369;-90
2023/05/29 00:08:08;;;;;;;;;;;20.30;96.80;20.40;99201.00;;;;342760;28;95827;-90
2023/05/29 00:08:22;;;;;;;;;;;20.30;96.70;20.50;99204.00;;;;342338;28;82329;-90
2023/05/29 00:08:33;;;;;;;;;;;20.30;96.40;20.50;99204.00;;;;344232;28;95782;-91
2023/05/29 00:08:45;;;;;;;;;;;20.30;96.50;20.50;99208.00;;;;343552;28;82480;-90
2023/05/29 00:08:57;;;;;;;;;;;20.30;96.60;20.50;99207.00;;;;342686;28;96618;-91
2023/05/29 00:09:09;;;;;;;;;;;20.30;96.50;20.50;99204.00;;;;343465;28;82592;-91
2023/05/29 00:09:21;;;;;;;;;;;20.40;96.70;20.50;99196.00;;;;340033;28;97619;-91
2023/05/29 00:09:33;;;;;;;;;;;20.30;96.60;20.60;99194.00;;;;344796;28;82344;-90
2023/05/29 00:09:45;;;;;;;;;;;20.30;96.70;20.60;99206.00;;;;342783;28;94845;-91
2023/05/29 00:09:57;;;;;;;;;;;20.30;96.60;20.50;99203.00;;;;343454;28;83458;-90
2023/05/29 00:10:09;;;;;;;;;;;20.30;96.80;20.40;99202.00;;;;344071;28;96676;-90
2023/05/29 00:10:21;;;;;;;;;;;20.30;96.80;20.30;99204.00;;;;342121;28;83412;-90
2023/05/29 00:10:33;;;;;;;;;;;20.30;97.00;20.30;99208.00;;;;342752;28;95454;-90
2023/05/29 00:10:45;;;;;;;;;;;20.30;97.10;20.30;99200.00;;;;342145;28;82538;-91
2023/05/29 00:10:57;;;;;;;;;;;20.30;97.40;20.20;99204.00;;;;341370;28;95442;-91
2023/05/29 00:11:09;;;;;;;;;;;20.30;97.00;20.20;99200.00;;;;340804;28;82461;-90
2023/05/29 00:11:21;;;;;;;;;;;20.30;96.90;20.30;99204.00;;;;339855;28;96709;-90
2023/05/29 00:11:33;;;;;;;;;;;20.30;97.00;20.30;99207.00;;;;343409;28;83468;-90
2023/05/29 00:11:50;;;;;;;;;;;20.30;97.00;20.30;99204.00;;;;342688;28;96811;-90
2023/05/29 00:12:02;;;;;;;;;;;20.30;97.00;20.30;99205.00;;;;341961;28;83446;-91
2023/05/29 00:12:14;;;;;;;;;;;20.30;97.10;20.20;99199.00;;;;342584;28;95676;-90
2023/05/29 00:12:26;;;;;;;;;;;20.30;97.30;20.20;99206.00;;;;342089;28;83404;-90
2023/05/29 00:12:38;;;;;;;;;;;20.30;97.20;20.10;99194.00;;;;341438;28;95554;-91
2023/05/29 00:12:50;;;;;;;;;;;20.20;97.20;20.10;99190.00;;;;344670;28;82453;-91
2023/05/29 00:13:03;;;;;;;;;;;20.20;97.10;20.20;99193.00;;;;341353;28;96985;-91
2023/05/29 00:13:16;;;;;;;;;;;20.30;97.10;20.30;99199.00;;;;343558;28;82521;-91
2023/05/29 00:13:28;;;;;;;;;;;20.20;97.00;20.40;99201.00;;;;341462;28;95226;-90
2023/05/29 00:13:40;;;;;;;;;;;20.20;96.90;20.30;99203.00;;;;343539;28;82597;-90
2023/05/29 00:13:52;;;;;;;;;;;20.30;97.00;20.30;99197.00;;;;341295;28;97104;-91
2023/05/29 00:14:04;;;;;;;;;;;20.20;97.00;20.20;99197.00;;;;343411;28;83414;-91
2023/05/29 00:14:19;;;;;;;;;;;20.20;97.20;20.20;99189.00;;;;342732;28;95455;-90
2023/05/29 00:14:31;;;;;;;;;;;20.30;97.20;20.30;99202.00;;;;344918;28;83269;-91
2023/05/29 00:14:42;;;;;;;;;;;20.20;97.10;20.30;99200.00;;;;341238;28;94866;-90
2023/05/29 00:14:54;;;;;;;;;;;20.20;97.10;20.20;99192.00;;;;343394;28;82441;-90
2023/05/29 00:15:07;;;;;;;;;;;20.20;97.20;20.20;99201.00;;;;341360;28;95865;-91
2023/05/29 00:15:20;;;;;;;;;;;20.20;97.20;20.30;99199.00;;;;342070;28;83451;-90
2023/05/29 00:15:32;;;;;;;;;;;20.20;97.20;20.30;99198.00;;;;339963;28;97168;-90
2023/05/29 00:15:44;;;;;;;;;;;20.20;97.00;20.30;99198.00;;;;343328;28;83521;-90
2023/05/29 00:15:56;;;;;;;;;;;20.20;97.30;20.30;99189.00;;;;342732;28;95834;-91
2023/05/29 00:16:09;;;;;;;;;;;20.20;97.00;20.30;99194.00;;;;344707;28;83466;-91
2023/05/29 00:16:21;;;;;;;;;;;20.20;96.80;20.30;99198.00;;;;343956;28;95661;-90
2023/05/29 00:16:34;;;;;;;;;;;20.20;97.10;20.40;99194.00;;;;344707;28;82490;-90
2023/05/29 00:16:46;;;;;;;;;;;20.20;96.90;20.30;99196.00;;;;342569;28;95636;-90
2023/05/29 00:16:58;;;;;;;;;;;20.20;97.10;20.30;99195.00;;;;344653;28;83408;-91
2023/05/29 00:17:12;;;;;;;;;;;20.20;97.10;20.30;99195.00;;;;345221;28;95495;-90
2023/05/29 00:17:24;;;;;;;;;;;20.20;97.30;20.30;99196.00;;;;343360;28;83397;-91
2023/05/29 00:17:36;;;;;;;;;;;20.20;97.30;20.30;99195.00;;;;342426;28;96943;-91
2023/05/29 00:17:49;;;;;;;;;;;20.20;97.10;20.40;99194.00;;;;342025;28;83270;-91
2023/05/29 00:18:01;;;;;;;;;;;20.20;97.10;20.40;99195.00;;;;342592;28;93753;-90
2023/05/29 00:18:13;;;;;;;;;;;20.20;97.00;20.40;99192.00;;;;344823;28;82365;-90
2023/05/29 00:18:25;;;;;;;;;;;20.20;97.00;20.30;99194.00;;;;341321;28;95246;-90
2023/05/29 00:18:44;;;;;;;;;;;20.20;97.20;20.30;99195.00;;;;343317;28;82476;-91
2023/05/29 00:18:57;;;;;;;;;;;20.20;97.20;20.30;99199.00;;;;344040;28;95163;-91
2023/05/29 00:19:09;;;;;;;;;;;20.20;97.10;20.20;99190.00;;;;340618;28;82460;-90
2023/05/29 00:19:21;;;;;;;;;;;20.20;97.10;20.30;99190.00;;;;342548;28;96471;-90
2023/05/29 00:19:33;;;;;;;;;;;20.20;97.10;20.30;99198.00;;;;341893;28;82615;-90
2023/05/29 00:19:45;;;;;;;;;;;20.20;97.10;20.20;99187.00;;;;339799;28;96578;-90
2023/05/29 00:19:56;;;;;;;;;;;20.20;97.10;20.20;99189.00;;;;343329;28;83280;-91
2023/05/29 00:20:09;;;;;;;;;;;20.20;97.10;20.30;99192.00;;;;342457;28;96474;-91
2023/05/29 00:20:21;;;;;;;;;;;20.10;96.90;20.30;99192.00;;;;342003;28;83295;-91
2023/05/29 00:20:34;;;;;;;;;;;20.20;96.90;20.40;99191.00;;;;342602;28;95460;-91
2023/05/29 00:20:46;;;;;;;;;;;20.20;96.80;20.30;99198.00;;;;343349;28;83178;-91
2023/05/29 00:20:58;;;;;;;;;;;20.20;97.00;20.40;99196.00;;;;341138;28;96935;-90
2023/05/29 00:21:10;;;;;;;;;;;20.20;96.90;20.50;99195.00;;;;339296;28;83458;-90
2023/05/29 00:21:22;;;;;;;;;;;20.20;96.90;20.50;99200.00;;;;339849;28;95419;-91
2023/05/29 00:21:33;;;;;;;;;;;20.20;96.90;20.50;99194.00;;;;341927;28;83463;-91
2023/05/29 00:21:47;;;;;;;;;;;20.20;96.80;20.50;99196.00;;;;342562;28;97576;-91
2023/05/29 00:21:59;;;;;;;;;;;20.20;96.70;20.40;99189.00;;;;343415;28;83381;-90
2023/05/29 00:22:12;;;;;;;;;;;20.20;96.90;20.40;99193.00;;;;342491;28;97310;-90
2023/05/29 00:22:25;;;;;;;;;;;20.20;97.10;20.30;99191.00;;;;346222;28;83374;-90
2023/05/29 00:22:37;;;;;;;;;;;20.20;97.10;20.30;99194.00;;;;342530;28;96504;-91
2023/05/29 00:22:49;;;;;;;;;;;20.20;97.20;20.30;99185.00;;;;342009;28;83487;-90
2023/05/29 00:23:05;;;;;;;;;;;20.20;97.10;20.20;99178.00;;;;341313;28;96362;-91
2023/05/29 00:23:17;;;;;;;;;;;20.20;97.10;20.30;99192.00;;;;346202;28;83259;-90
2023/05/29 00:23:30;;;;;;;;;;;20.20;97.00;20.40;99186.00;;;;342673;28;95323;-90
2023/05/29 00:23:42;;;;;;;;;;;20.20;96.70;20.40;99190.00;;;;342120;28;84513;-91
2023/05/29 00:23:56;;;;;;;;;;;20.20;96.70;20.40;99188.00;;;;342802;28;94854;-91
2023/05/29 00:24:08;;;;;;;;;;;20.20;96.60;20.40;99183.00;;;;341993;28;83496;-91
2023/05/29 00:24:20;;;;;;;;;;;20.20;96.70;20.30;99186.00;;;;342544;28;97036;-90
2023/05/29 00:24:32;;;;;;;;;;;20.20;96.80;20.30;99190.00;;;;342208;28;82380;-90
2023/05/29 00:24:44;;;;;;;;;;;20.20;96.70;20.30;99187.00;;;;342537;28;96125;-90
2023/05/29 00:24:56;;;;;;;;;;;20.20;96.80;20.30;99190.00;;;;342024;28;83411;-90
2023/05/29 00:25:08;;;;;;;;;;;20.20;96.90;20.30;99192.00;;;;342746;28;93126;-91
2023/05/29 00:25:20;;;;;;;;;;;20.20;96.90;20.30;99183.00;;;;343309;28;83349;-90
2023/05/29 00:25:32;;;;;;;;;;;20.20;96.90;20.40;99187.00;;;;342709;28;95381;-90
2023/05/29 00:25:44;;;;;;;;;;;20.20;96.60;20.40;99180.00;;;;342145;28;82570;-91
2023/05/29 00:25:56;;;;;;;;;;;20.20;96.60;20.40;99181.00;;;;342433;28;97262;-91
2023/05/29 00:26:08;;;;;;;;;;;20.20;96.70;20.40;99182.00;;;;344733;28;83413;-90
2023/05/29 00:26:20;;;;;;;;;;;20.20;96.50;20.40;99190.00;;;;341184;28;96930;-91
2023/05/29 00:26:32;;;;;;;;;;;20.20;96.50;20.40;99191.00;;;;344743;28;83368;-91
2023/05/29 00:26:44;;;;;;;;;;;20.20;96.70;20.40;99184.00;;;;343861;28;96616;-91
2023/05/29 00:26:56;;;;;;;;;;;20.20;96.60;20.50;99184.00;;;;343266;28;83395;-90
2023/05/29 00:27:09;;;;;;;;;;;20.20;96.60;20.50;99183.00;;;;342609;28;96601;-90
2023/05/29 00:27:21;;;;;;;;;;;20.20;96.80;20.50;99190.00;;;;342012;28;84195;-91
2023/05/29 00:27:33;;;;;;;;;;;20.20;96.80;20.50;99186.00;;;;341279;28;96677;-91
2023/05/29 00:27:45;;;;;;;;;;;20.20;96.80;20.50;99188.00;;;;343501;28;83512;-90
2023/05/29 00:27:57;;;;;;;;;;;20.20;96.90;20.40;99180.00;;;;342610;28;97244;-90
2023/05/29 00:28:09;;;;;;;;;;;20.20;96.70;20.40;99188.00;;;;343360;28;83503;-91
2023/05/29 00:28:21;;;;;;;;;;;20.20;96.60;20.50;99185.00;;;;343928;28;96828;-91
2023/05/29 00:28:35;;;;;;;;;;;20.20;96.60;20.50;99186.00;;;;340682;28;82468;-91
2023/05/29 00:28:46;;;;;;;;;;;20.20;96.60;20.60;99185.00;;;;342584;28;96491;-90
2023/05/29 00:28:58;;;;;;;;;;;20.30;96.70;20.50;99180.00;;;;344746;28;83404;-91
2023/05/29 00:29:10;;;;;;;;;;;20.30;96.60;20.50;99184.00;;;;343943;28;96837;-91
2023/05/29 00:29:22;;;;;;;;;;;20.30;96.70;20.60;99186.00;;;;341882;28;82468;-91
2023/05/29 00:29:35;;;;;;;;;;;20.30;96.80;20.60;99193.00;;;;344043;28;96213;-90
2023/05/29 00:29:47;;;;;;;;;;;20.30;96.80;20.50;99188.00;;;;343447;28;83440;-91
2023/05/29 00:30:00;;;;;;;;;;;20.30;96.90;20.50;99182.00;;;;339962;28;96999;-90
2023/05/29 00:30:12;;;;;;;;;;;20.30;97.00;20.40;99188.00;;;;346059;28;82527;-91
2023/05/29 00:30:24;;;;;;;;;;;20.30;97.10;20.40;99189.00;;;;341339;28;95799;-91
2023/05/29 00:30:36;;;;;;;;;;;20.30;97.00;20.50;99181.00;;;;342101;28;82473;-90
2023/05/29 00:30:48;;;;;;;;;;;20.30;96.80;20.50;99187.00;;;;342638;28;96335;-90
2023/05/29 00:31:00;;;;;;;;;;;20.30;96.80;20.50;99190.00;;;;343457;28;83462;-91
2023/05/29 00:31:12;;;;;;;;;;;20.30;96.70;20.50;99191.00;;;;342575;28;95298;-90
2023/05/29 00:31:24;;;;;;;;;;;20.30;96.60;20.40;99188.00;;;;343383;28;82388;-91
2023/05/29 00:31:36;;;;;;;;;;;20.30;96.70;20.40;99190.00;;;;343948;28;95413;-91
2023/05/29 00:31:49;;;;;;;;;;;20.30;97.00;20.40;99191.00;;;;343450;28;82380;-90
2023/05/29 00:32:01;;;;;;;;;;;20.30;96.80;20.40;99189.00;;;;341305;28;97545;-90
2023/05/29 00:32:14;;;;;;;;;;;20.30;96.80;20.40;99188.00;;;;345013;28;82587;-91
2023/05/29 00:32:27;;;;;;;;;;;20.30;97.00;20.40;99193.00;;;;342811;28;95229;-91
2023/05/29 00:32:39;;;;;;;;;;;20.30;97.00;20.30;99193.00;;;;343437;28;83425;-90
2023/05/29 00:32:52;;;;;;;;;;;20.30;97.10;20.40;99189.00;;;;343918;28;95453;-90
2023/05/29 00:33:03;;;;;;;;;;;20.30;97.10;20.40;99192.00;;;;343431;28;82496;-91
2023/05/29 00:33:16;;;;;;;;;;;20.30;97.00;20.40;99191.00;;;;339843;28;97031;-91
2023/05/29 00:33:28;;;;;;;;;;;20.30;96.90;20.30;99193.00;;;;343398;28;82637;-91
2023/05/29 00:33:40;;;;;;;;;;;20.30;97.10;20.20;99200.00;;;;342642;28;95407;-91
2023/05/29 00:33:52;;;;;;;;;;;20.30;97.20;20.30;99201.00;;;;341984;28;82558;-90
2023/05/29 00:34:04;;;;;;;;;;;20.30;97.40;20.20;99195.00;;;;344002;28;95934;-91
2023/05/29 00:34:16;;;;;;;;;;;20.20;97.40;20.10;99192.00;;;;344828;28;82628;-91
2023/05/29 00:34:27;;;;;;;;;;;20.30;97.40;20.00;99198.00;;;;344165;28;96675;-90
2023/05/29 00:34:39;;;;;;;;;;;20.20;97.20;20.00;99195.00;;;;344983;28;82579;-91
2023/05/29 00:34:51;;;;;;;;;;;20.20;97.10;20.00;99202.00;;;;341402;28;93130;-91
2023/05/29 00:35:04;;;;;;;;;;;20.10;97.10;20.00;99200.00;;;;343606;28;83316;-90
2023/05/29 00:35:16;;;;;;;;;;;20.10;97.10;20.00;99195.00;;;;342616;28;96813;-90
2023/05/29 00:35:27;;;;;;;;;;;20.10;97.20;20.00;99189.00;;;;344697;28;83531;-91
2023/05/29 00:35:39;;;;;;;;;;;20.10;97.20;20.00;99199.00;;;;341278;28;96148;-91
2023/05/29 00:35:51;;;;;;;;;;;20.10;97.30;20.10;99197.00;;;;343499;28;82466;-91
2023/05/29 00:36:05;;;;;;;;;;;20.10;97.30;20.00;99186.00;;;;342475;28;97642;-91
2023/05/29 00:36:19;;;;;;;;;;;20.10;97.30;20.10;99194.00;;;;343370;28;83347;-91
2023/05/29 00:36:34;;;;;;;;;;;20.10;97.20;20.10;99197.00;;;;343991;28;96444;-90
2023/05/29 00:36:46;;;;;;;;;;;20.10;97.20;20.10;99194.00;;;;344742;28;83535;-90
2023/05/29 00:36:58;;;;;;;;;;;20.10;97.20;20.10;99199.00;;;;344062;28;96310;-91
2023/05/29 00:37:10;;;;;;;;;;;20.10;97.10;20.10;99200.00;;;;344797;28;82488;-91
2023/05/29 00:37:22;;;;;;;;;;;20.10;97.00;20.10;99197.00;;;;339987;28;96522;-91
2023/05/29 00:37:34;;;;;;;;;;;20.10;97.10;20.20;99192.00;;;;342075;28;83481;-91
2023/05/29 00:37:46;;;;;;;;;;;20.10;96.90;20.20;99200.00;;;;345451;28;96446;-91
2023/05/29 00:37:58;;;;;;;;;;;20.10;96.80;20.20;99207.00;;;;346058;28;82516;-91
2023/05/29 00:38:09;;;;;;;;;;;20.10;96.80;20.20;99191.00;;;;342321;28;96654;-92
2023/05/29 00:38:21;;;;;;;;;;;20.10;97.00;20.10;99192.00;;;;344817;28;83328;-91
2023/05/29 00:38:33;;;;;;;;;;;20.10;97.20;20.10;99202.00;;;;343891;28;96022;-90
2023/05/29 00:38:45;;;;;;;;;;;20.10;97.20;20.10;99205.00;;;;343464;28;82513;-91
2023/05/29 00:38:57;;;;;;;;;;;20.10;97.20;20.10;99200.00;;;;342456;28;96253;-91
2023/05/29 00:39:09;;;;;;;;;;;20.10;97.20;20.20;99197.00;;;;342023;28;83456;-90
2023/05/29 00:39:21;;;;;;;;;;;20.10;97.00;20.20;99198.00;;;;343943;28;94244;-91
2023/05/29 00:39:33;;;;;;;;;;;20.10;97.10;20.20;99196.00;;;;344686;28;82511;-91
2023/05/29 00:39:45;;;;;;;;;;;20.10;96.70;20.20;99197.00;;;;344000;28;95416;-90
2023/05/29 00:39:57;;;;;;;;;;;20.10;96.70;20.20;99189.00;;;;344755;28;82577;-90
2023/05/29 00:40:10;;;;;;;;;;;20.10;96.60;20.30;99202.00;;;;341238;28;95134;-93
2023/05/29 00:40:21;;;;;;;;;;;20.10;96.70;20.30;99195.00;;;;340715;28;82543;-91
2023/05/29 00:40:33;;;;;;;;;;;20.10;96.70;20.40;99202.00;;;;339945;28;95084;-91
2023/05/29 00:40:45;;;;;;;;;;;20.10;96.70;20.30;99193.00;;;;343326;28;82346;-91
2023/05/29 00:40:58;;;;;;;;;;;20.10;96.90;20.30;99204.00;;;;342566;28;95478;-90
2023/05/29 00:41:16;;;;;;;;;;;20.10;96.90;20.30;99204.00;;;;340663;28;83337;-91
2023/05/29 00:41:28;;;;;;;;;;;20.10;97.20;20.30;99201.00;;;;342527;28;95615;-91
2023/05/29 00:41:40;;;;;;;;;;;20.10;97.00;20.30;99207.00;;;;343396;28;83505;-90
2023/05/29 00:41:52;;;;;;;;;;;20.10;96.70;20.40;99197.00;;;;339800;28;95553;-90
2023/05/29 00:42:04;;;;;;;;;;;20.10;96.70;20.30;99195.00;;;;343056;28;83558;-92
2023/05/29 00:42:16;;;;;;;;;;;20.10;96.60;20.40;99200.00;;;;341147;28;96244;-91
2023/05/29 00:42:28;;;;;;;;;;;20.10;96.70;20.40;99201.00;;;;344866;28;82428;-90
2023/05/29 00:42:40;;;;;;;;;;;20.10;96.80;20.40;99194.00;;;;342416;28;97095;-91
2023/05/29 00:42:52;;;;;;;;;;;20.10;96.70;20.40;99198.00;;;;343340;28;83387;-90
2023/05/29 00:43:03;;;;;;;;;;;20.10;96.70;20.40;99211.00;;;;343974;28;96310;-90
2023/05/29 00:43:15;;;;;;;;;;;20.10;96.70;20.40;99198.00;;;;343246;28;83414;-91
2023/05/29 00:43:27;;;;;;;;;;;20.10;96.60;20.40;99203.00;;;;342509;28;95494;-90
2023/05/29 00:43:39;;;;;;;;;;;20.20;96.70;20.40;99200.00;;;;343328;28;82519;-90
2023/05/29 00:43:51;;;;;;;;;;;20.20;96.70;20.40;99204.00;;;;342640;28;96652;-90
2023/05/29 00:44:03;;;;;;;;;;;20.10;96.90;20.40;99204.00;;;;343299;28;83529;-90
2023/05/29 00:44:14;;;;;;;;;;;20.10;96.90;20.40;99204.00;;;;341090;28;97029;-91
2023/05/29 00:44:26;;;;;;;;;;;20.20;96.90;20.50;99200.00;;;;343409;28;83359;-90
2023/05/29 00:44:38;;;;;;;;;;;20.20;96.90;20.50;99199.00;;;;342463;28;96881;-91
2023/05/29 00:44:50;;;;;;;;;;;20.20;96.90;20.50;99200.00;;;;343337;28;83470;-89
2023/05/29 00:45:02;;;;;;;;;;;20.20;96.90;20.50;99190.00;;;;341217;28;97113;-91
2023/05/29 00:45:15;;;;;;;;;;;20.20;96.90;20.50;99195.00;;;;343331;28;83409;-90
2023/05/29 00:45:26;;;;;;;;;;;20.20;97.00;20.50;99196.00;;;;342533;28;96420;-90
2023/05/29 00:45:38;;;;;;;;;;;20.20;97.00;20.50;99198.00;;;;344761;28;82522;-90
2023/05/29 00:45:50;;;;;;;;;;;20.20;96.90;20.50;99203.00;;;;342661;28;95737;-90
2023/05/29 00:46:02;;;;;;;;;;;20.20;96.90;20.50;99205.00;;;;340591;28;82430;-91
2023/05/29 00:46:15;;;;;;;;;;;20.20;96.90;20.60;99198.00;;;;341108;28;96278;-90
2023/05/29 00:46:27;;;;;;;;;;;20.20;97.00;20.50;99202.00;;;;342043;28;82268;-90
2023/05/29 00:46:39;;;;;;;;;;;20.20;96.90;20.50;99202.00;;;;342521;28;96144;-90
2023/05/29 00:46:52;;;;;;;;;;;20.20;96.80;20.50;99208.00;;;;346049;28;83509;-90
2023/05/29 00:47:04;;;;;;;;;;;20.20;96.80;20.50;99200.00;;;;342614;28;95211;-91
2023/05/29 00:47:16;;;;;;;;;;;20.20;96.80;20.50;99200.00;;;;343525;28;82449;-91
2023/05/29 00:47:28;;;;;;;;;;;20.20;96.90;20.50;99199.00;;;;345346;28;95266;-91
2023/05/29 00:47:41;;;;;;;;;;;20.20;97.00;20.40;99204.00;;;;344593;28;83490;-90
2023/05/29 00:47:53;;;;;;;;;;;20.20;96.90;20.40;99197.00;;;;342631;28;96259;-90
2023/05/29 00:48:05;;;;;;;;;;;20.20;96.90;20.50;99205.00;;;;341911;28;83309;-91
2023/05/29 00:48:17;;;;;;;;;;;20.20;96.90;20.40;99204.00;;;;343817;28;97027;-91
2023/05/29 00:48:29;;;;;;;;;;;20.30;97.00;20.40;99199.00;;;;343569;28;82536;-91
2023/05/29 00:48:43;;;;;;;;;;;20.20;97.00;20.40;99203.00;;;;342515;28;95502;-91
2023/05/29 00:48:55;;;;;;;;;;;20.20;97.20;20.40;99205.00;;;;344753;28;83387;-91
2023/05/29 00:49:07;;;;;;;;;;;20.20;97.10;20.20;99201.00;;;;341211;28;97185;-91
2023/05/29 00:49:20;;;;;;;;;;;20.20;97.10;20.20;99198.00;;;;343370;28;82479;-91
2023/05/29 00:49:32;;;;;;;;;;;20.20;97.20;20.20;99201.00;;;;342501;28;95767;-91
2023/05/29 00:49:44;;;;;;;;;;;20.20;97.30;20.40;99206.00;;;;343390;28;83444;-91
2023/05/29 00:49:55;;;;;;;;;;;20.20;97.10;20.50;99204.00;;;;343994;28;95843;-91
2023/05/29 00:50:13;;;;;;;;;;;20.20;97.20;20.30;99203.00;;;;344549;28;82647;-90
2023/05/29 00:50:25;;;;;;;;;;;20.20;97.20;20.20;99200.00;;;;341214;28;97143;-91
2023/05/29 00:50:37;;;;;;;;;;;20.20;97.30;20.30;99212.00;;;;343342;28;83393;-91
2023/05/29 00:50:48;;;;;;;;;;;20.20;97.30;20.40;99202.00;;;;341123;28;96241;-90
2023/05/29 00:51:00;;;;;;;;;;;20.20;97.30;20.40;99201.00;;;;343294;28;83388;-91
2023/05/29 00:51:12;;;;;;;;;;;20.20;97.20;20.40;99204.00;;;;341232;28;93831;-91
2023/05/29 00:51:24;;;;;;;;;;;20.20;97.10;20.40;99206.00;;;;343272;28;83282;-91
2023/05/29 00:51:36;;;;;;;;;;;20.20;97.20;20.40;99205.00;;;;341111;28;96895;-91
2023/05/29 00:51:48;;;;;;;;;;;20.20;97.20;20.30;99201.00;;;;343352;28;83381;-90
2023/05/29 00:52:00;;;;;;;;;;;20.20;97.20;20.20;99193.00;;;;339801;28;96951;-90
2023/05/29 00:52:12;;;;;;;;;;;20.20;97.30;20.20;99196.00;;;;340639;28;83479;-90
2023/05/29 00:52:24;;;;;;;;;;;20.20;97.30;20.10;99211.00;;;;343952;28;97619;-90
2023/05/29 00:52:36;;;;;;;;;;;20.20;97.30;20.20;99205.00;;;;343378;28;82511;-90
2023/05/29 00:52:48;;;;;;;;;;;20.20;97.40;20.20;99196.00;;;;342508;28;95122;-90
2023/05/29 00:53:01;;;;;;;;;;;20.20;97.30;20.20;99203.00;;;;344768;28;83320;-91
2023/05/29 00:53:13;;;;;;;;;;;20.20;97.30;20.20;99201.00;;;;343868;28;95577;-91
2023/05/29 00:53:25;;;;;;;;;;;20.20;97.30;20.20;99192.00;;;;343273;28;83481;-91
2023/05/29 00:53:37;;;;;;;;;;;20.10;97.20;20.20;99200.00;;;;343934;28;95423;-91
2023/05/29 00:53:49;;;;;;;;;;;20.20;97.30;20.20;99199.00;;;;344691;28;83418;-90
2023/05/29 00:54:01;;;;;;;;;;;20.10;97.20;20.20;99203.00;;;;343963;28;95642;-91
2023/05/29 00:54:15;;;;;;;;;;;20.10;97.30;20.20;99197.00;;;;341865;28;83436;-91
2023/05/29 00:54:28;;;;;;;;;;;20.10;97.30;20.20;99194.00;;;;341217;28;96431;-91
2023/05/29 00:54:43;;;;;;;;;;;20.10;97.20;20.20;99199.00;;;;343355;28;82485;-90
2023/05/29 00:54:55;;;;;;;;;;;20.10;97.30;20.20;99202.00;;;;342480;28;95886;-90
2023/05/29 00:55:08;;;;;;;;;;;20.10;97.10;20.10;99206.00;;;;343248;28;83378;-91
2023/05/29 00:55:21;;;;;;;;;;;20.10;97.20;20.20;99199.00;;;;342501;28;95589;-90
2023/05/29 00:55:33;;;;;;;;;;;20.10;97.20;20.20;99199.00;;;;344583;28;83352;-91
2023/05/29 00:55:45;;;;;;;;;;;20.10;97.00;20.30;99205.00;;;;343928;28;96518;-91
2023/05/29 00:55:57;;;;;;;;;;;20.10;97.00;20.40;99211.00;;;;344682;28;82466;-91
2023/05/29 00:56:09;;;;;;;;;;;20.10;97.00;20.40;99203.00;;;;343787;28;96901;-91
2023/05/29 00:56:21;;;;;;;;;;;20.10;97.00;20.50;99207.00;;;;346050;28;83461;-91
2023/05/29 00:56:43;;;;;;;;;;;20.10;97.10;20.50;99201.00;;;;343932;28;96279;-91
2023/05/29 00:56:57;;;;;;;;;;;20.10;97.10;20.50;99204.00;;;;344645;28;83651;-91
2023/05/29 00:57:09;;;;;;;;;;;20.10;97.10;20.40;99205.00;;;;343859;28;95572;-91
2023/05/29 00:57:21;;;;;;;;;;;20.20;97.20;20.40;99210.00;;;;344634;28;82487;-91
2023/05/29 00:57:34;;;;;;;;;;;20.20;97.20;20.40;99207.00;;;;344055;28;95279;-91
2023/05/29 00:57:47;;;;;;;;;;;20.20;97.10;20.40;99201.00;;;;343345;28;83386;-91
2023/05/29 00:57:59;;;;;;;;;;;20.20;97.10;20.30;99205.00;;;;342564;28;96407;-91
2023/05/29 00:58:11;;;;;;;;;;;20.10;97.00;20.30;99202.00;;;;343168;28;83851;-91
2023/05/29 00:58:23;;;;;;;;;;;20.10;97.20;20.40;99203.00;;;;343902;28;96458;-91
2023/05/29 00:58:35;;;;;;;;;;;20.10;97.10;20.30;99206.00;;;;344670;28;82501;-90
2023/05/29 00:58:48;;;;;;;;;;;20.10;97.10;20.20;99207.00;;;;341095;28;97587;-92
2023/05/29 00:59:00;;;;;;;;;;;20.10;97.20;20.30;99205.00;;;;346008;28;83250;-91
2023/05/29 00:59:12;;;;;;;;;;;20.10;97.40;20.40;99206.00;;;;342324;28;96545;-91
2023/05/29 00:59:26;;;;;;;;;;;20.20;97.30;20.40;99205.00;;;;346015;28;83424;-90
2023/05/29 00:59:38;;;;;;;;;;;20.20;97.20;20.40;99212.00;;;;343842;28;96940;-90
2023/05/29 00:59:50;;;;;;;;;;;20.20;97.20;20.40;99202.00;;;;343393;28;82471;-91
2023/05/29 01:00:05;;;;;;;;;;;20.20;97.10;20.30;99212.00;;;;343864;28;95678;-91
2023/05/29 01:00:18;;;;;;;;;;;20.20;97.20;20.20;99213.00;;;;344621;28;83608;-90
2023/05/29 01:00:30;;;;;;;;;;;20.20;97.30;20.20;99212.00;;;;344012;28;95915;-91
2023/05/29 01:00:42;;;;;;;;;;;20.10;97.30;20.20;99206.00;;;;343262;28;83240;-90
2023/05/29 01:00:54;;;;;;;;;;;20.10;97.30;20.10;99214.00;;;;342469;28;97669;-90
2023/05/29 01:01:06;;;;;;;;;;;20.10;97.30;20.10;99215.00;;;;342050;28;83472;-91